Time;durP1;ratioP1;P1;durP2;ratioP2;P2;SDS_P1;SDS_P2;PMS_P1;PMS_P2;Temp;Humidity;BMP_temperature;BMP_pressure;BME280_temperature;BME280_humidity;BME280_pressure;Samples;Min_cycle;Max_cycle;Signal;HPM_P1;HPM_P2
2021/10/31 00:01:04;;;;;;;71.42;22.55;;;;;;;-0.30;72.00;102608.43;1794242;79;21176;-66
2021/10/31 00:03:44;;;;;;;69.67;23.12;;;;;;;-0.32;72.04;102609.30;1773748;80;21482;-66
2021/10/31 00:06:20;;;;;;;81.80;25.35;;;;;;;-0.33;72.03;102607.58;1795636;80;21252;-66
2021/10/31 00:09:04;;;;;;;93.70;30.00;;;;;;;-0.34;71.91;102611.04;1794493;80;21189;-66
2021/10/31 00:11:42;;;;;;;76.12;25.55;;;;;;;-0.38;71.74;102610.65;1795591;80;21161;-66
2021/10/31 00:14:19;;;;;;;66.97;23.85;;;;;;;-0.42;71.65;102609.80;1794318;80;21798;-66
2021/10/31 00:17:00;;;;;;;70.25;25.20;;;;;;;-0.44;71.59;102617.09;1795221;80;21296;-66
2021/10/31 00:19:37;;;;;;;93.10;29.40;;;;;;;-0.47;71.56;102610.67;1794141;80;21984;-66
2021/10/31 00:22:10;;;;;;;70.05;23.65;;;;;;;-0.52;71.44;102609.42;1769593;80;21307;-66
2021/10/31 00:24:45;;;;;;;75.32;24.70;;;;;;;-0.55;71.40;102612.46;1790958;79;21280;-66
2021/10/31 00:27:18;;;;;;;58.00;19.67;;;;;;;-0.58;71.56;102608.61;1792545;80;21318;-66
2021/10/31 00:29:54;;;;;;;62.88;19.10;;;;;;;-0.59;71.56;102606.89;1792009;80;21176;-66
2021/10/31 00:32:27;;;;;;;;;;;;;;;-0.61;71.54;102611.19;1794711;80;21275;-66
2021/10/31 00:35:01;;;;;;;94.72;28.67;;;;;;;-0.63;71.65;102606.49;1791030;80;20600;-66
2021/10/31 00:37:39;;;;;;;111.75;33.63;;;;;;;-0.65;71.75;102601.37;1792077;80;22180;-66
2021/10/31 00:40:14;;;;;;;106.92;35.68;;;;;;;-0.64;71.66;102601.77;1791416;80;21283;-66
2021/10/31 00:42:48;;;;;;;62.62;22.62;;;;;;;-0.68;71.37;102605.23;1793266;80;21279;-66
2021/10/31 00:45:22;;;;;;;53.92;18.57;;;;;;;-0.79;71.12;102608.30;1791402;80;21173;-66
2021/10/31 00:47:56;;;;;;;45.75;17.37;;;;;;;-0.84;71.11;102605.75;1791211;80;21154;-67
2021/10/31 00:50:33;;;;;;;38.90;16.23;;;;;;;-0.88;71.23;102611.75;1790649;80;21157;-66
2021/10/31 00:53:12;;;;;;;34.65;15.58;;;;;;;-0.88;71.31;102617.31;1792513;80;21244;-66
2021/10/31 00:55:47;;;;;;;44.88;17.15;;;;;;;-0.89;71.48;102609.20;1792621;80;21251;-66
2021/10/31 00:58:22;;;;;;;38.67;15.40;;;;;;;-0.90;71.61;102607.48;1791732;80;21283;-66
2021/10/31 01:00:58;;;;;;;37.53;16.42;;;;;;;-0.91;71.76;102607.07;1793004;80;21165;-66
2021/10/31 01:03:38;;;;;;;49.35;18.80;;;;;;;-0.89;71.91;102606.20;1792257;80;21229;-66
2021/10/31 01:06:55;;;;;;;53.52;20.72;;;;;;;-0.87;71.88;102606.19;1792972;80;21251;-65
2021/10/31 01:09:51;;;;;;;52.85;20.27;;;;;;;-0.88;71.75;102605.33;1791979;80;21213;-66
2021/10/31 01:13:03;;;;;;;50.85;20.20;;;;;;;-0.89;71.71;102606.20;1791279;79;21145;-66
2021/10/31 01:16:00;;;;;;;56.33;19.75;;;;;;;-0.89;71.59;102612.63;1792792;80;21351;-66
2021/10/31 01:19:31;;;;;;;53.25;19.07;;;;;;;-0.93;71.41;102610.09;1792052;80;21271;-66
2021/10/31 01:22:59;;;;;;;51.75;19.37;;;;;;;-0.96;71.35;102613.52;1793704;80;21267;-66
2021/10/31 01:26:12;;;;;;;38.83;17.37;;;;;;;-1.00;71.23;102616.08;1797001;79;21280;-66
2021/10/31 01:29:21;;;;;;;38.30;15.85;;;;;;;-1.03;71.37;102613.13;1797475;80;21256;-66
2021/10/31 01:32:30;;;;;;;52.75;17.42;;;;;;;-1.01;71.49;102622.97;1798293;80;21275;-66
2021/10/31 01:35:49;;;;;;;44.85;17.02;;;;;;;-1.04;71.38;102622.97;1797283;80;21187;-66
2021/10/31 01:39:13;;;;;;;51.95;18.80;;;;;;;-1.05;71.30;102617.84;1788521;80;21397;-66
2021/10/31 01:42:14;;;;;;;49.23;17.95;;;;;;;-1.02;71.50;102623.81;1796959;80;21775;-66
2021/10/31 01:45:10;;;;;;;52.30;19.92;;;;;;;-0.99;71.67;102617.38;1797820;80;21853;-66
2021/10/31 01:48:10;;;;;;;52.65;19.67;;;;;;;-0.96;71.71;102620.37;1788267;80;21188;-65
2021/10/31 01:50:46;;;;;;;67.12;26.35;;;;;;;-0.96;71.54;102625.52;1797090;79;21160;-66
2021/10/31 01:53:32;;;;;;;47.83;20.20;;;;;;;-0.99;71.51;102622.95;1797988;80;21253;-67
2021/10/31 01:56:15;;;;;;;43.35;16.55;;;;;;;-0.99;71.38;102623.81;1797734;79;21661;-66
2021/10/31 01:58:59;;;;;;;73.92;27.20;;;;;;;-1.02;71.18;102621.23;1797430;80;21157;-67
2021/10/31 02:01:37;;;;;;;76.92;27.82;;;;;;;-1.07;71.00;102615.26;1796716;80;21715;-66
2021/10/31 02:04:12;;;;;;;58.00;19.05;;;;;;;-1.12;70.76;102623.41;1798120;80;21244;-66
2021/10/31 02:06:52;;;;;;;92.40;29.63;;;;;;;-1.15;70.63;102626.44;1798152;79;21284;-66
2021/10/31 02:09:31;;;;;;;141.73;50.03;;;;;;;-1.18;70.55;102624.73;1797100;80;21785;-66
2021/10/31 02:12:11;;;;;;;114.32;37.45;;;;;;;-1.23;70.44;102621.73;1798115;80;21129;-66
2021/10/31 02:14:45;;;;;;;86.32;30.40;;;;;;;-1.27;70.38;102618.34;1798055;79;21241;-66
2021/10/31 02:17:19;;;;;;;74.75;25.50;;;;;;;-1.27;70.40;102617.05;1798168;80;21259;-66
2021/10/31 02:19:55;;;;;;;77.67;26.40;;;;;;;-1.28;70.37;102619.61;1796261;79;21290;-66
2021/10/31 02:22:34;;;;;;;231.45;105.20;;;;;;;-1.30;70.37;102621.33;1732939;79;21271;-66
2021/10/31 02:25:09;;;;;;;167.43;75.20;;;;;;;-1.31;70.25;102614.50;1798117;80;21169;-66
2021/10/31 02:27:50;;;;;;;144.85;66.60;;;;;;;-1.34;70.25;102620.50;1798285;80;21772;-66
2021/10/31 02:30:24;;;;;;;75.62;32.23;;;;;;;-1.37;70.18;102614.94;1796395;80;21232;-65
2021/10/31 02:33:01;;;;;;;39.38;16.80;;;;;;;-1.38;70.31;102610.64;1798287;80;21755;-65
2021/10/31 02:35:39;;;;;;;45.33;16.93;;;;;;;-1.37;70.41;102611.08;1797253;80;21827;-65
2021/10/31 02:38:13;;;;;;;46.10;17.12;;;;;;;-1.37;70.47;102609.80;1797901;80;21192;-66
2021/10/31 02:40:48;;;;;;;47.65;17.35;;;;;;;-1.37;70.63;102610.22;1796779;80;21185;-66
2021/10/31 02:43:22;;;;;;;37.23;15.98;;;;;;;-1.36;70.71;102610.63;1798190;80;21283;-66
2021/10/31 02:45:59;;;;;;;39.90;15.93;;;;;;;-1.34;70.78;102613.21;1769472;80;21161;-66
2021/10/31 02:48:34;;;;;;;53.48;22.00;;;;;;;-1.33;70.74;102611.05;1798236;80;21129;-66
2021/10/31 02:51:29;;;;;;;187.85;81.00;;;;;;;-1.33;70.54;102618.34;1796336;80;21252;-66
2021/10/31 02:54:22;;;;;;;183.75;78.42;;;;;;;-1.36;70.38;102607.63;1798271;80;21244;-66
2021/10/31 02:57:23;;;;;;;65.32;23.00;;;;;;;-1.37;70.40;102605.08;1797181;80;21146;-66
2021/10/31 03:00:08;;;;;;;107.70;32.05;;;;;;;-1.40;70.22;102606.36;1785410;80;21263;-66
2021/10/31 03:02:43;;;;;;;105.72;34.43;;;;;;;-1.44;70.06;102606.81;1796476;80;21240;-66
2021/10/31 03:05:16;;;;;;;;;;;;;;;-1.48;70.00;102601.69;1800354;80;21284;-65
2021/10/31 03:07:52;;;;;;;81.47;35.52;;;;;;;-1.54;69.86;102602.55;1798205;80;20153;-65
2021/10/31 03:10:26;;;;;;;78.85;33.85;;;;;;;-1.60;69.92;102597.86;1797754;79;21237;-66
2021/10/31 03:13:01;;;;;;;76.22;30.88;;;;;;;-1.63;69.94;102596.16;1798093;79;21209;-66
2021/10/31 03:15:39;;;;;;;55.60;22.85;;;;;;;-1.64;69.99;102597.42;1796341;80;21181;-65
2021/10/31 03:18:19;;;;;;;62.80;18.17;;;;;;;-1.64;70.02;102594.42;1798565;80;21180;-66
2021/10/31 03:20:57;;;;;;;57.40;19.07;;;;;;;-1.66;69.97;102596.15;1756463;81;21348;-65
2021/10/31 03:23:39;;;;;;;57.35;19.00;;;;;;;-1.70;69.96;102589.31;1728577;82;21180;-66
2021/10/31 03:26:14;;;;;;;56.15;18.25;;;;;;;-1.72;69.99;102586.32;1755399;81;21210;-66
2021/10/31 03:28:52;;;;;;;41.20;14.20;;;;;;;-1.75;69.98;102579.90;1795466;80;21219;-66
2021/10/31 03:31:29;;;;;;;38.00;14.30;;;;;;;-1.79;69.98;102580.31;1796758;80;21739;-66
2021/10/31 03:34:02;;;;;;;37.65;14.43;;;;;;;-1.81;69.97;102583.31;1798242;80;21177;-66
2021/10/31 03:36:40;;;;;;;39.85;12.37;;;;;;;-1.83;70.11;102576.47;1797731;80;21339;-65
2021/10/31 03:39:16;;;;;;;29.85;13.48;;;;;;;-1.83;70.24;102573.48;1798178;80;21264;-65
2021/10/31 03:41:49;;;;;;;32.70;12.53;;;;;;;-1.83;70.19;102572.63;1798184;80;21338;-65
2021/10/31 03:44:35;;;;;;;34.35;13.32;;;;;;;-1.85;70.20;102577.77;1797623;80;21283;-65
2021/10/31 03:47:07;;;;;;;29.45;12.05;;;;;;;-1.86;70.26;102573.47;1797477;80;21292;-66
2021/10/31 03:49:43;;;;;;;28.77;12.82;;;;;;;-1.85;70.35;102569.20;1795883;79;21204;-66
2021/10/31 03:52:17;;;;;;;57.40;16.85;;;;;;;-1.83;70.27;102572.63;1797820;80;21315;-65
2021/10/31 03:54:55;;;;;;;56.33;21.10;;;;;;;-1.81;70.24;102573.05;1798323;80;21244;-65
2021/10/31 03:57:28;;;;;;;59.42;22.40;;;;;;;-1.81;70.20;102570.48;1797139;80;21253;-65
2021/10/31 04:00:02;;;;;;;43.20;17.77;;;;;;;-1.80;70.13;102566.20;1797743;79;21141;-65
2021/10/31 04:02:39;;;;;;;40.10;15.55;;;;;;;-1.79;70.10;102558.95;1797539;80;21304;-66
2021/10/31 04:05:14;;;;;;;32.25;13.43;;;;;;;-1.77;70.13;102562.36;1798193;80;21228;-65
2021/10/31 04:07:51;;;;;;;24.15;9.45;;;;;;;-1.74;70.02;102561.91;1797785;79;21319;-65
2021/10/31 04:10:32;;;;;;;33.42;13.15;;;;;;;-1.73;69.93;102557.21;1797770;80;21772;-66
2021/10/31 04:13:11;;;;;;;26.27;12.00;;;;;;;-1.70;69.79;102565.34;1792291;79;21165;-65
2021/10/31 04:15:48;;;;;;;45.80;18.27;;;;;;;-1.71;69.46;102566.19;1792505;80;21210;-66
2021/10/31 04:18:23;;;;;;;50.00;24.35;;;;;;;-1.72;69.19;102565.33;1792256;80;21806;-65
2021/10/31 04:20:56;;;;;;;36.80;15.60;;;;;;;-1.64;69.05;102563.61;1797824;79;21699;-65
2021/10/31 04:23:39;;;;;;;42.03;17.05;;;;;;;-1.49;68.83;102565.29;1797099;80;21169;-65
2021/10/31 04:26:14;;;;;;;41.53;18.98;;;;;;;-1.28;68.64;102569.50;1797868;80;21252;-66
2021/10/31 04:28:49;;;;;;;46.60;21.68;;;;;;;-0.97;68.31;102567.23;1797374;80;21138;-66
2021/10/31 04:31:27;;;;;;;48.52;23.60;;;;;;;-0.57;67.87;102565.31;1796349;79;21134;-66
2021/10/31 04:34:01;;;;;;;33.35;15.65;;;;;;;-0.11;67.28;102565.37;1796895;80;21213;-66
2021/10/31 04:36:42;;;;;;;39.98;15.40;;;;;;;0.39;66.32;102567.48;1768409;79;21350;-66
2021/10/31 04:39:18;;;;;;;30.23;13.65;;;;;;;0.91;65.19;102564.73;1797142;79;21268;-67
2021/10/31 04:42:01;;;;;;;31.17;14.13;;;;;;;1.42;64.01;102568.36;1796099;79;21141;-66
2021/10/31 04:44:33;;;;;;;37.23;19.15;;;;;;;1.97;62.65;102567.92;1796590;80;21169;-67
2021/10/31 04:47:13;;;;;;;31.75;15.80;;;;;;;2.58;61.14;102562.49;1798029;80;21181;-67
2021/10/31 04:49:47;;;;;;;32.73;13.32;;;;;;;3.16;59.62;102562.60;1796228;80;21272;-67
2021/10/31 04:52:25;;;;;;;25.90;10.78;;;;;;;3.73;57.95;102565.60;1797153;80;21303;-68
2021/10/31 04:54:58;;;;;;;48.55;25.30;;;;;;;4.25;56.01;102564.70;1798229;80;21134;-68
2021/10/31 04:57:32;;;;;;;37.48;17.70;;;;;;;4.75;54.70;102562.07;1797089;80;21839;-68
2021/10/31 05:00:09;;;;;;;52.45;24.35;;;;;;;5.26;53.09;102563.13;1798046;79;21764;-68
2021/10/31 05:02:42;;;;;;;46.75;24.52;;;;;;;5.83;51.60;102558.30;1796947;80;21319;-69
2021/10/31 05:05:15;;;;;;;70.00;34.63;;;;;;;6.40;50.33;102564.64;1797984;80;21812;-68
2021/10/31 05:07:49;;;;;;;159.50;72.40;;;;;;;6.93;48.74;102560.94;1798143;79;21239;-68
2021/10/31 05:10:24;;;;;;;109.97;52.13;;;;;;;7.44;47.01;102559.42;1798406;79;21248;-69
2021/10/31 05:13:00;;;;;;;70.57;34.78;;;;;;;7.95;45.97;102554.69;1796986;79;21253;-69
2021/10/31 05:15:34;;;;;;;55.60;28.92;;;;;;;8.48;44.96;102560.28;1797934;80;21292;-69
2021/10/31 05:18:15;;;;;;;29.40;16.20;;;;;;;9.04;43.64;102564.73;1796550;79;21132;-68
2021/10/31 05:20:52;;;;;;;25.48;12.60;;;;;;;9.53;42.32;102565.44;1797945;79;21252;-69
2021/10/31 05:23:27;;;;;;;24.05;13.30;;;;;;;10.01;41.55;102562.19;1796572;80;21522;-68
2021/10/31 05:26:04;;;;;;;31.48;16.65;;;;;;;10.51;40.99;102567.50;1798271;80;21256;-68
2021/10/31 05:28:37;;;;;;;31.17;15.15;;;;;;;11.07;39.97;102559.27;1798226;80;21299;-68
2021/10/31 05:31:13;;;;;;;23.98;13.78;;;;;;;11.58;39.21;102562.95;1796299;79;21141;-68
2021/10/31 05:33:51;;;;;;;23.83;12.40;;;;;;;12.01;38.33;102559.56;1797606;80;21263;-70
2021/10/31 05:36:32;;;;;;;21.68;12.60;;;;;;;12.31;37.26;102562.63;1797973;80;21260;-68
2021/10/31 05:39:11;;;;;;;18.75;11.63;;;;;;;12.72;36.90;102562.30;1796208;79;21231;-69
2021/10/31 05:41:44;;;;;;;23.00;12.13;;;;;;;13.22;35.92;102560.03;1798427;80;21133;-68
2021/10/31 05:44:20;;;;;;;21.20;11.55;;;;;;;13.70;34.89;102558.66;1795875;80;21152;-68
2021/10/31 05:47:04;;;;;;;20.15;11.38;;;;;;;14.13;34.18;102556.66;1797785;80;21134;-68
2021/10/31 05:49:39;;;;;;;19.02;11.03;;;;;;;14.57;33.51;102557.12;1770311;80;21315;-68
2021/10/31 05:52:14;;;;;;;20.77;11.10;;;;;;;15.05;32.99;102550.66;1798093;79;21252;-68
2021/10/31 05:54:54;;;;;;;26.27;12.98;;;;;;;15.48;32.34;102549.29;1797379;79;21263;-68
2021/10/31 05:57:26;;;;;;;20.90;12.60;;;;;;;15.87;31.70;102552.95;1796885;80;21272;-69
2021/10/31 06:00:06;;;;;;;26.97;14.68;;;;;;;16.30;31.09;102557.16;1797435;79;21272;-68
2021/10/31 06:02:53;;;;;;;22.98;15.10;;;;;;;16.66;30.41;102545.09;1797624;80;21284;-69
2021/10/31 06:05:28;;;;;;;21.12;10.78;;;;;;;16.99;29.87;102545.55;1797407;80;21805;-70
2021/10/31 06:08:13;;;;;;;23.75;12.75;;;;;;;17.31;29.50;102546.95;1797998;80;21279;-69
2021/10/31 06:10:44;;;;;;;20.72;14.75;;;;;;;17.68;28.94;102551.42;1797084;79;22131;-69
2021/10/31 06:13:22;;;;;;;55.67;42.83;;;;;;;17.93;28.70;102549.28;1797560;79;21185;-69
2021/10/31 06:15:59;;;;;;;22.93;12.98;;;;;;;18.20;28.18;102546.09;1796294;79;21153;-68
2021/10/31 06:18:40;;;;;;;17.82;10.00;;;;;;;18.44;27.71;102548.45;1796042;80;21129;-69
2021/10/31 06:21:14;;;;;;;16.07;9.88;;;;;;;18.65;27.68;102540.84;1796553;79;21204;-69
2021/10/31 06:23:48;;;;;;;12.95;9.15;;;;;;;19.30;26.88;102527.06;1797092;80;21359;-68
2021/10/31 06:26:23;;;;;;;13.58;9.58;;;;;;;19.68;26.39;102529.45;1796218;80;21173;-68
2021/10/31 06:29:01;;;;;;;15.70;9.90;;;;;;;19.68;26.39;102529.45;1797329;80;21275;-68
2021/10/31 06:31:37;;;;;;;13.08;9.38;;;;;;;20.10;26.00;102532.13;1797149;80;21181;-67
2021/10/31 06:34:10;;;;;;;22.58;14.75;;;;;;;20.42;25.48;102520.65;1796711;80;21291;-67
2021/10/31 06:36:45;;;;;;;18.62;11.20;;;;;;;20.74;25.32;102522.91;1797137;79;21129;-68
2021/10/31 06:39:20;;;;;;;28.95;18.77;;;;;;;21.07;24.98;102521.49;1798004;80;21283;-68
2021/10/31 06:41:56;;;;;;;36.58;25.90;;;;;;;21.36;24.67;102520.81;1796346;79;21227;-70
2021/10/31 06:44:32;;;;;;;26.20;16.00;;;;;;;21.67;24.44;102522.59;1796705;80;21205;-68
2021/10/31 06:47:12;;;;;;;20.32;13.62;;;;;;;21.82;24.10;102519.24;1770020;79;21256;-66
2021/10/31 06:49:48;;;;;;;19.98;12.80;;;;;;;22.00;24.03;102520.07;1795331;79;21692;-66
2021/10/31 06:52:22;;;;;;;24.67;17.85;;;;;;;22.21;23.71;102526.89;1798384;80;21191;-66
2021/10/31 06:54:56;;;;;;;29.23;15.20;;;;;;;22.43;23.43;102523.17;1796804;80;21256;-66
2021/10/31 06:57:31;;;;;;;19.00;13.38;;;;;;;22.68;23.30;102516.16;1796760;80;21272;-66
2021/10/31 07:00:09;;;;;;;27.35;15.83;;;;;;;22.98;23.05;102508.92;1797789;80;21265;-68
2021/10/31 07:02:46;;;;;;;21.07;13.60;;;;;;;23.33;22.70;102499.83;1798181;80;21110;-68
2021/10/31 07:05:31;;;;;;;20.52;14.13;;;;;;;23.70;22.44;102503.38;1797881;80;21649;-68
2021/10/31 07:08:04;;;;;;;17.65;12.80;;;;;;;23.85;22.36;102505.22;1796530;79;21145;-67
2021/10/31 07:10:43;;;;;;;19.98;13.90;;;;;;;24.13;22.16;102503.52;1797432;80;21473;-67
2021/10/31 07:13:18;;;;;;;23.45;14.03;;;;;;;24.37;21.84;102502.97;1798089;80;21237;-67
2021/10/31 07:15:58;;;;;;;22.13;13.60;;;;;;;24.51;21.65;102504.92;1796317;79;21164;-67
2021/10/31 07:18:32;;;;;;;164.07;130.40;;;;;;;24.71;21.48;102491.96;1797909;80;21134;-68
2021/10/31 07:21:10;;;;;;;31.40;21.80;;;;;;;24.82;21.49;102494.77;1796028;79;21679;-67
2021/10/31 07:23:45;;;;;;;23.92;16.35;;;;;;;24.97;21.43;102491.69;1798045;80;21311;-68
2021/10/31 07:26:23;;;;;;;22.85;13.60;;;;;;;25.06;21.34;102485.27;1797441;80;21795;-67
2021/10/31 07:28:59;;;;;;;22.65;14.38;;;;;;;25.19;21.38;102483.69;1794480;79;21196;-68
2021/10/31 07:31:40;;;;;;;18.75;14.47;;;;;;;25.43;21.21;102489.38;1789294;80;21331;-68
2021/10/31 07:34:14;;;;;;;21.60;13.10;;;;;;;25.69;21.10;102481.81;1789708;80;21252;-69
2021/10/31 07:36:49;;;;;;;31.75;23.10;;;;;;;25.99;20.77;102480.84;1789539;80;21289;-68
2021/10/31 07:39:25;;;;;;;25.10;15.75;;;;;;;26.09;20.62;102473.36;1788179;79;21229;-69
2021/10/31 07:42:03;;;;;;;20.85;14.50;;;;;;;26.13;20.60;102476.52;1789351;80;21265;-69
2021/10/31 07:44:38;;;;;;;26.20;17.20;;;;;;;26.08;20.66;102474.36;1788493;80;21236;-68
2021/10/31 07:47:13;;;;;;;29.40;20.40;;;;;;;26.19;20.85;102474.45;1788445;80;21212;-67
2021/10/31 07:49:47;;;;;;;28.90;18.50;;;;;;;26.31;20.69;102474.32;1788610;80;21146;-67
2021/10/31 07:52:22;;;;;;;28.92;22.02;;;;;;;26.43;20.81;102466.12;1789403;80;21162;-67
2021/10/31 07:55:00;;;;;;;25.70;21.00;;;;;;;26.61;20.70;102460.33;1789607;80;21142;-67
2021/10/31 07:57:36;;;;;;;24.70;15.98;;;;;;;26.84;20.62;102457.05;1789793;80;21256;-67
2021/10/31 08:00:09;;;;;;;21.52;14.63;;;;;;;27.09;20.50;102454.81;1790314;80;21106;-67
2021/10/31 08:02:46;;;;;;;20.40;14.20;;;;;;;27.35;20.24;102452.38;1789125;80;21271;-67
2021/10/31 08:05:24;;;;;;;18.15;13.93;;;;;;;27.63;19.91;102451.95;1788996;80;21192;-67
2021/10/31 08:08:04;;;;;;;21.82;14.47;;;;;;;27.81;19.72;102451.44;1766191;80;21315;-66
2021/10/31 08:10:44;;;;;;;21.07;15.45;;;;;;;27.81;19.77;102454.97;1790208;80;21181;-66
2021/10/31 08:13:26;;;;;;;17.30;11.63;;;;;;;27.81;19.91;102455.47;1788936;80;21173;-67
2021/10/31 08:16:03;;;;;;;16.62;10.68;;;;;;;27.94;19.87;102451.55;1788881;80;21293;-68
2021/10/31 08:18:42;;;;;;;17.12;10.50;;;;;;;28.16;19.67;102451.79;1788809;80;21243;-68
2021/10/31 08:21:26;;;;;;;23.25;11.05;;;;;;;28.36;19.61;102447.86;1786457;79;21140;-68
2021/10/31 08:23:59;;;;;;;15.50;9.73;;;;;;;28.50;19.51;102451.77;1788852;80;21234;-68
2021/10/31 08:26:36;;;;;;;15.93;10.55;;;;;;;28.52;19.49;102448.86;1784131;80;21205;-69
2021/10/31 08:29:18;;;;;;;16.70;10.35;;;;;;;28.54;19.48;102444.92;1785589;80;21149;-69
2021/10/31 08:31:53;;;;;;;15.63;10.10;;;;;;;28.68;19.56;102448.55;1796790;79;21711;-69
2021/10/31 08:34:26;;;;;;;12.80;8.48;;;;;;;28.79;19.52;102439.03;1798337;80;21245;-68
2021/10/31 08:37:00;;;;;;;14.58;8.00;;;;;;;28.79;19.59;102440.37;1797989;80;21339;-68
2021/10/31 08:39:36;;;;;;;12.73;7.45;;;;;;;28.68;19.63;102429.15;1796498;79;21154;-69
2021/10/31 08:42:18;;;;;;;13.45;6.97;;;;;;;28.55;19.87;102430.95;1798426;80;21164;-68
2021/10/31 08:44:53;;;;;;;13.15;7.12;;;;;;;28.27;20.17;102427.52;1798414;80;21279;-69
2021/10/31 08:50:30;;;;;;;10.90;6.07;;;;;;;28.38;20.29;102418.84;1673347;85;21218;-70
2021/10/31 08:53:08;;;;;;;13.18;7.42;;;;;;;28.16;20.42;102411.39;1671836;85;22020;-70
2021/10/31 08:55:43;;;;;;;12.03;6.05;;;;;;;27.95;20.57;102414.15;1650700;84;21347;-68
2021/10/31 08:58:17;;;;;;;11.90;6.62;;;;;;;27.76;20.75;102413.00;1667119;85;21203;-68
2021/10/31 09:00:51;;;;;;;11.50;7.30;;;;;;;27.59;20.97;102410.80;1667979;86;21323;-68
2021/10/31 09:03:32;;;;;;;14.23;8.70;;;;;;;27.28;21.16;102404.41;1673649;85;22156;-67
2021/10/31 09:06:12;;;;;;;9.93;5.92;;;;;;;26.79;21.59;102398.16;1697197;84;21668;-68
2021/10/31 09:08:48;;;;;;;6.58;4.08;;;;;;;26.36;21.95;102398.56;1703688;84;21330;-69
2021/10/31 09:11:21;;;;;;;10.60;6.92;;;;;;;25.87;22.18;102397.77;1704200;84;21318;-68
2021/10/31 09:13:56;;;;;;;;;;;;;;;24.98;22.96;102400.91;1705933;84;21522;-68
2021/10/31 09:16:30;;;;;;;4.17;3.45;;;;;;;24.06;23.91;102397.64;1703604;84;20794;-68
2021/10/31 09:19:04;;;;;;;8.43;5.30;;;;;;;22.95;25.16;102393.56;1703320;84;21969;-68
2021/10/31 09:21:40;;;;;;;4.80;3.08;;;;;;;22.09;26.25;102396.41;1678514;84;21300;-69
2021/10/31 09:24:19;;;;;;;9.03;4.83;;;;;;;21.10;27.52;102400.86;1674609;85;21331;-69
2021/10/31 09:26:53;;;;;;;13.80;4.60;;;;;;;20.08;29.22;102405.12;1674585;85;21376;-69
2021/10/31 09:29:30;;;;;;;4.83;2.80;;;;;;;18.27;32.25;102393.45;1674298;85;22029;-69
2021/10/31 09:32:04;;;;;;;5.87;2.90;;;;;;;18.27;32.25;102393.45;1675361;85;21307;-68
2021/10/31 09:34:39;;;;;;;4.70;2.52;;;;;;;17.57;33.38;102397.38;1674256;85;21601;-69
2021/10/31 09:37:15;;;;;;;7.53;2.98;;;;;;;16.86;34.80;102395.35;1674502;85;21241;-70
2021/10/31 09:39:51;;;;;;;23.02;9.90;;;;;;;16.34;35.85;102385.92;1674379;85;21402;-69
2021/10/31 09:42:28;;;;;;;21.90;10.88;;;;;;;15.95;36.99;102387.28;1675893;85;21307;-69
2021/10/31 09:45:02;;;;;;;9.00;3.92;;;;;;;15.61;37.78;102393.46;1674362;85;21264;-68
2021/10/31 09:47:36;;;;;;;9.00;4.87;;;;;;;15.24;38.52;102385.64;1674512;85;21316;-68
2021/10/31 09:50:10;;;;;;;4.83;2.75;;;;;;;14.85;39.50;102380.19;1682790;84;21674;-68
2021/10/31 09:52:48;;;;;;;8.28;3.52;;;;;;;14.53;40.31;102375.57;1692747;84;21200;-69
2021/10/31 09:55:22;;;;;;;9.20;5.08;;;;;;;14.24;41.00;102370.17;1691237;84;21300;-70
2021/10/31 09:57:59;;;;;;;25.40;11.73;;;;;;;14.00;41.87;102368.32;1691659;84;21385;-68
2021/10/31 10:00:40;;;;;;;25.12;10.60;;;;;;;13.80;42.57;102358.34;1691993;84;21515;-67
2021/10/31 10:03:35;;;;;;;7.05;4.55;;;;;;;13.63;43.05;102360.44;1692071;84;21208;-68
2021/10/31 10:06:20;;;;;;;25.25;9.45;;;;;;;13.44;43.47;102357.75;1690723;84;21227;-68
2021/10/31 10:09:09;;;;;;;11.03;5.35;;;;;;;13.34;43.95;102354.05;1691049;84;21212;-68
2021/10/31 10:11:45;;;;;;;7.25;4.10;;;;;;;13.29;44.20;102349.56;1691207;84;21192;-70
2021/10/31 10:14:30;;;;;;;5.22;3.87;;;;;;;13.24;44.49;102351.66;1693065;84;21346;-67
2021/10/31 10:17:11;;;;;;;19.05;8.33;;;;;;;13.22;44.56;102353.55;1692267;84;22234;-68
2021/10/31 10:19:59;;;;;;;23.77;10.48;;;;;;;13.14;44.87;102336.58;1692222;84;21367;-67
2021/10/31 10:22:31;;;;;;;20.95;7.17;;;;;;;13.08;45.03;102336.53;1691396;84;21180;-68
2021/10/31 10:25:05;;;;;;;29.30;9.95;;;;;;;13.07;45.11;102329.58;1692771;83;21358;-68
2021/10/31 10:27:59;;;;;;;10.00;4.30;;;;;;;13.09;45.30;102324.20;1694848;84;21330;-66
2021/10/31 10:30:29;;;;;;;9.43;3.77;;;;;;;13.08;45.18;102323.86;1694123;83;21655;-67
2021/10/31 10:33:04;;;;;;;5.12;2.47;;;;;;;13.03;44.95;102324.59;1692251;84;21307;-66
2021/10/31 10:35:39;;;;;;;9.55;4.45;;;;;;;12.96;45.17;102317.59;1692317;84;21246;-65
2021/10/31 10:38:19;;;;;;;13.80;5.30;;;;;;;12.94;45.21;102310.75;1691562;84;21228;-68
2021/10/31 10:40:54;;;;;;;6.90;3.60;;;;;;;12.93;45.46;102318.25;1691985;84;21649;-67
2021/10/31 10:43:34;;;;;;;2.85;2.05;;;;;;;12.92;45.45;102321.84;1692692;84;22296;-67
2021/10/31 10:46:12;;;;;;;3.83;2.45;;;;;;;12.85;45.45;102324.86;1694379;84;21935;-67
2021/10/31 10:48:58;;;;;;;2.75;2.10;;;;;;;12.80;45.57;102323.50;1696148;84;21802;-67
2021/10/31 10:51:39;;;;;;;3.52;2.15;;;;;;;12.75;45.67;102318.52;1696172;84;21224;-66
2021/10/31 10:54:16;;;;;;;4.28;2.52;;;;;;;12.69;45.65;102301.84;1695757;83;21160;-65
2021/10/31 10:57:08;;;;;;;27.87;11.95;;;;;;;12.72;45.73;102310.84;1696745;84;21330;-66
2021/10/31 10:59:42;;;;;;;7.17;3.37;;;;;;;12.73;45.71;102302.47;1695342;84;21506;-66
2021/10/31 11:02:17;;;;;;;;;;;;;;;12.76;45.75;102316.27;1699802;84;21311;-65
2021/10/31 11:04:59;;;;;;;3.20;2.05;;;;;;;12.76;45.61;102300.50;1697382;84;20683;-65
2021/10/31 11:07:42;;;;;;;4.22;2.00;;;;;;;12.73;45.45;102299.84;1696936;84;21279;-65
2021/10/31 11:10:22;;;;;;;3.92;2.33;;;;;;;12.70;45.61;102291.72;1695629;83;21245;-65
2021/10/31 11:13:06;;;;;;;4.65;2.62;;;;;;;12.71;45.63;102289.91;1697089;84;21275;-65
2021/10/31 11:15:45;;;;;;;3.60;2.27;;;;;;;12.71;45.56;102295.16;1692069;84;21211;-67
2021/10/31 11:18:19;;;;;;;19.07;8.08;;;;;;;12.69;45.36;102297.90;1692344;84;21381;-66
2021/10/31 11:20:54;;;;;;;7.75;2.90;;;;;;;12.67;45.69;102285.34;1692454;84;21219;-66
2021/10/31 11:23:28;;;;;;;31.45;10.10;;;;;;;12.66;45.66;102284.95;1694467;84;21318;-67
2021/10/31 11:26:09;;;;;;;24.25;9.58;;;;;;;12.67;45.73;102284.02;1694092;84;21412;-67
2021/10/31 11:28:38;;;;;;;18.85;7.25;;;;;;;12.69;45.47;102276.88;1694732;84;21290;-66
2021/10/31 11:31:11;;;;;;;6.30;3.00;;;;;;;12.71;45.49;102276.77;1695585;84;21374;-68
2021/10/31 11:33:46;;;;;;;5.85;3.25;;;;;;;12.74;45.40;102270.00;1695209;84;21203;-68
2021/10/31 11:36:19;;;;;;;6.83;3.65;;;;;;;12.72;45.32;102269.27;1693002;84;22081;-69
2021/10/31 11:38:54;;;;;;;4.85;3.35;;;;;;;12.69;45.43;102270.77;1691381;83;21220;-67
2021/10/31 11:41:32;;;;;;;4.25;2.77;;;;;;;12.68;45.44;102280.44;1691470;84;21533;-69
2021/10/31 11:44:06;;;;;;;8.23;3.52;;;;;;;12.69;45.33;102265.52;1691817;84;21310;-69
2021/10/31 11:46:44;;;;;;;5.53;3.45;;;;;;;12.68;45.40;102276.98;1692224;84;21636;-68
2021/10/31 11:49:20;;;;;;;7.30;3.35;;;;;;;12.67;45.52;102273.98;1691969;84;21322;-67
2021/10/31 11:51:57;;;;;;;6.85;3.50;;;;;;;12.66;45.36;102271.81;1709148;83;21398;-66
2021/10/31 11:54:32;;;;;;;16.65;8.50;;;;;;;12.66;45.33;102271.81;1704489;83;21255;-66
2021/10/31 11:57:26;;;;;;;8.00;5.28;;;;;;;12.65;45.57;102270.61;1671262;85;21315;-65
2021/10/31 12:00:21;;;;;;;8.00;4.10;;;;;;;12.65;45.72;102274.55;1656670;86;21227;-65
2021/10/31 12:03:09;;;;;;;6.78;3.50;;;;;;;12.64;45.78;102277.64;1647558;86;21203;-65
2021/10/31 12:05:48;;;;;;;10.60;5.60;;;;;;;12.61;45.74;102259.94;1686134;84;21311;-68
2021/10/31 12:08:55;;;;;;;12.63;7.58;;;;;;;12.61;45.86;102263.39;1706420;84;22094;-68
2021/10/31 12:11:36;;;;;;;;;;;;;;;12.63;45.92;102265.94;1708424;84;21231;-65